Time;durP1;ratioP1;P1;durP2;ratioP2;P2;SDS_P1;SDS_P2;PMS_P1;PMS_P2;Temp;Humidity;BMP_temperature;BMP_pressure;BME280_temperature;BME280_humidity;BME280_pressure;Samples;Min_cycle;Max_cycle;Signal;HPM_P1;HPM_P2
2024/03/17 00:04:52;;;;;;;10.30;4.90;;;;;;;4.41;100.00;100831.39;215700;1285;139068;-88
2024/03/17 00:09:53;;;;;;;18.10;4.20;;;;;;;4.34;100.00;100830.39;213925;1288;139323;-91
2024/03/17 00:14:53;;;;;;;13.20;3.40;;;;;;;4.26;100.00;100829.63;214439;1285;97946;-89
2024/03/17 00:19:54;;;;;;;21.50;3.60;;;;;;;4.21;100.00;100831.64;213884;1282;139181;-89
2024/03/17 00:24:54;;;;;;;15.60;3.60;;;;;;;4.15;100.00;100835.13;214382;1289;138470;-89
2024/03/17 00:29:55;;;;;;;17.40;3.50;;;;;;;4.10;100.00;100846.36;214792;1285;139044;-88
2024/03/17 00:34:56;;;;;;;13.20;3.80;;;;;;;4.07;100.00;100847.22;215731;1288;138636;-89
2024/03/17 00:39:56;;;;;;;13.60;4.10;;;;;;;4.05;100.00;100843.39;214972;1285;139153;-89
2024/03/17 00:44:56;;;;;;;17.30;4.90;;;;;;;4.02;100.00;100850.76;215591;1288;98870;-89
2024/03/17 00:49:57;;;;;;;17.80;4.50;;;;;;;4.04;100.00;100846.05;215332;1285;139036;-89
2024/03/17 00:54:57;;;;;;;22.90;4.10;;;;;;;4.04;100.00;100852.45;214539;1288;140259;-89
2024/03/17 00:59:58;;;;;;;15.50;3.90;;;;;;;4.04;100.00;100855.73;214005;1285;139749;-90
2024/03/17 01:04:58;;;;;;;17.80;4.20;;;;;;;4.04;100.00;100851.58;215309;1283;138699;-87
2024/03/17 01:09:59;;;;;;;18.20;4.50;;;;;;;4.07;100.00;100853.50;214298;1285;139489;-89
2024/03/17 01:14:59;;;;;;;12.70;3.30;;;;;;;4.10;100.00;100853.55;214956;1283;98025;-89
2024/03/17 01:20:00;;;;;;;16.90;3.00;;;;;;;4.13;100.00;100852.77;215308;1285;138808;-88
2024/03/17 01:25:01;;;;;;;16.80;3.20;;;;;;;4.17;100.00;100849.55;215576;1285;138745;-87
2024/03/17 01:30:01;;;;;;;18.00;2.60;;;;;;;4.21;100.00;100846.58;214789;1288;139585;-86
2024/03/17 01:35:02;;;;;;;11.90;2.60;;;;;;;4.24;100.00;100843.85;214991;1288;138704;-87
2024/03/17 01:40:07;;;;;;;11.90;2.50;;;;;;;4.27;100.00;100845.19;214433;1287;139462;-88
2024/03/17 01:45:17;;;;;;;10.30;2.60;;;;;;;4.28;100.00;100841.38;215552;1285;138117;-89
2024/03/17 01:50:24;;;;;;;18.80;2.90;;;;;;;4.29;100.00;100844.66;215748;1288;139226;-89
2024/03/17 01:55:26;;;;;;;22.50;3.70;;;;;;;4.28;100.00;100843.45;216092;1288;137403;-87
2024/03/17 02:00:29;;;;;;;11.80;3.30;;;;;;;4.29;100.00;100848.00;215131;1288;138931;-87
2024/03/17 02:05:29;;;;;;;11.90;3.10;;;;;;;4.29;100.00;100849.42;214579;1288;138761;-86
2024/03/17 02:10:30;;;;;;;13.40;4.10;;;;;;;4.29;100.00;100851.91;216193;1285;138911;-89
2024/03/17 02:15:31;;;;;;;15.20;3.00;;;;;;;4.29;100.00;100851.66;214293;1288;138825;-89
2024/03/17 02:25:51;;;;;;;12.30;3.40;;;;;;;4.29;100.00;100844.98;214314;1285;138496;-89
2024/03/17 02:30:52;;;;;;;16.40;3.70;;;;;;;4.30;100.00;100847.64;213869;1284;139476;-88
2024/03/17 02:35:52;;;;;;;9.40;3.10;;;;;;;4.31;100.00;100837.91;214111;1288;138689;-87
2024/03/17 02:40:53;;;;;;;9.50;2.90;;;;;;;4.32;100.00;100829.86;213774;1285;138831;-88
2024/03/17 02:45:53;;;;;;;12.20;2.60;;;;;;;4.31;100.00;100822.35;214189;1288;138482;-86
2024/03/17 02:50:53;;;;;;;25.00;3.40;;;;;;;4.31;100.00;100813.83;213708;1288;139401;-86
2024/03/17 02:55:54;;;;;;;15.50;2.70;;;;;;;4.31;100.00;100814.95;214162;1285;138302;-87
2024/03/17 03:00:54;;;;;;;16.50;3.50;;;;;;;4.30;100.00;100817.33;213769;1288;139470;-87
2024/03/17 03:05:56;;;;;;;9.70;3.30;;;;;;;4.29;100.00;100818.36;214524;1288;138636;-88
2024/03/17 03:10:57;;;;;;;12.00;3.50;;;;;;;4.28;100.00;100825.40;215497;1287;139451;-88
2024/03/17 03:15:57;;;;;;;10.50;2.80;;;;;;;4.29;100.00;100824.96;214187;1286;139157;-87
2024/03/17 03:20:58;;;;;;;18.40;2.80;;;;;;;4.27;100.00;100829.64;213856;1288;139412;-86
2024/03/17 03:26:02;;;;;;;10.80;2.50;;;;;;;4.25;100.00;100831.02;214242;1288;138316;-87
2024/03/17 03:31:03;;;;;;;16.40;2.70;;;;;;;4.23;100.00;100829.08;213965;1286;139902;-86
2024/03/17 03:36:10;;;;;;;12.10;2.60;;;;;;;4.23;100.00;100827.57;214448;1288;138766;-88
2024/03/17 03:41:15;;;;;;;19.00;2.70;;;;;;;4.22;100.00;100822.48;213785;1288;139168;-85
2024/03/17 03:46:16;;;;;;;12.00;2.60;;;;;;;4.21;100.00;100823.80;214359;1288;139176;-87
2024/03/17 03:51:17;;;;;;;12.20;2.30;;;;;;;4.20;100.00;100823.57;213832;1286;141715;-86
2024/03/17 03:56:18;;;;;;;16.30;3.20;;;;;;;4.19;100.00;100819.32;214110;1288;138317;-86
2024/03/17 04:01:21;;;;;;;12.40;2.40;;;;;;;4.17;100.00;100820.41;214526;1288;138459;-86
2024/03/17 04:06:23;;;;;;;9.50;2.20;;;;;;;4.16;100.00;100823.63;213920;1286;139733;-86
2024/03/17 04:11:23;;;;;;;18.20;2.60;;;;;;;4.15;100.00;100820.80;215033;1288;138565;-86
2024/03/17 04:16:25;;;;;;;7.70;2.30;;;;;;;4.16;100.00;100830.31;214823;1288;139801;-86
2024/03/17 04:21:26;;;;;;;15.60;2.20;;;;;;;4.17;100.00;100830.55;214710;1285;139394;-88
2024/03/17 04:26:26;;;;;;;13.60;2.20;;;;;;;4.18;100.00;100826.98;214372;1288;140001;-87
2024/03/17 04:31:27;;;;;;;9.90;3.10;;;;;;;4.19;100.00;100825.08;214191;1285;138884;-87
2024/03/17 04:36:28;;;;;;;10.10;2.10;;;;;;;4.20;100.00;100827.55;213681;1286;138883;-87
2024/03/17 04:41:28;;;;;;;17.90;2.30;;;;;;;4.22;100.00;100831.20;215247;1286;137657;-86
2024/03/17 04:46:29;;;;;;;10.70;2.80;;;;;;;4.21;100.00;100833.02;215291;1286;139567;-86
2024/03/17 04:51:30;;;;;;;15.20;2.60;;;;;;;4.22;100.00;100826.45;215504;1288;138698;-87
2024/03/17 04:56:31;;;;;;;9.50;2.20;;;;;;;4.21;100.00;100830.88;214228;1285;140348;-89
2024/03/17 05:01:35;;;;;;;10.30;1.90;;;;;;;4.21;100.00;100844.88;214551;1285;138967;-87
2024/03/17 05:06:36;;;;;;;9.70;1.80;;;;;;;4.21;100.00;100843.86;214097;1286;139745;-86
2024/03/17 05:11:37;;;;;;;12.90;2.20;;;;;;;4.22;100.00;100855.66;214659;1289;139151;-86
2024/03/17 05:16:38;;;;;;;14.20;1.80;;;;;;;4.23;100.00;100855.84;215749;1288;139475;-86
2024/03/17 05:21:39;;;;;;;8.20;1.80;;;;;;;4.24;100.00;100855.42;214614;1288;138793;-87
2024/03/17 05:26:42;;;;;;;16.00;2.90;;;;;;;4.26;100.00;100854.64;213864;1285;138646;-88
2024/03/17 05:31:43;;;;;;;12.60;1.90;;;;;;;4.28;100.00;100858.33;215025;1285;139358;-87
2024/03/17 05:36:44;;;;;;;6.50;1.80;;;;;;;4.30;100.00;100875.21;214194;1286;140551;-88
2024/03/17 05:41:48;;;;;;;12.10;2.20;;;;;;;4.31;100.00;100879.92;214984;1288;138542;-87
2024/03/17 05:46:51;;;;;;;7.10;1.80;;;;;;;4.32;100.00;100891.52;214656;1286;138791;-88
2024/03/17 05:51:52;;;;;;;17.70;2.50;;;;;;;4.36;100.00;100888.86;214992;1288;138592;-88
2024/03/17 05:56:54;;;;;;;13.00;1.80;;;;;;;4.39;100.00;100895.23;215040;1288;139407;-86
2024/03/17 06:01:54;;;;;;;9.60;1.80;;;;;;;4.42;100.00;100900.83;215311;1289;138482;-86
2024/03/17 06:06:55;;;;;;;11.80;2.30;;;;;;;4.46;100.00;100903.35;214375;1283;139629;-87
2024/03/17 06:11:55;;;;;;;17.50;2.60;;;;;;;4.52;100.00;100911.92;214815;1288;138857;-86
2024/03/17 06:16:56;;;;;;;11.70;2.40;;;;;;;4.58;100.00;100920.19;215065;1286;138288;-86
2024/03/17 06:21:57;;;;;;;11.50;2.00;;;;;;;4.64;100.00;100920.91;216436;1286;139769;-88
2024/03/17 06:26:58;;;;;;;12.40;2.60;;;;;;;4.71;100.00;100924.31;215101;1289;138956;-87
2024/03/17 06:31:59;;;;;;;11.00;2.20;;;;;;;4.77;100.00;100923.71;215634;1286;139033;-86
2024/03/17 06:37:00;;;;;;;19.30;2.80;;;;;;;4.84;100.00;100926.96;214717;1289;139499;-87
2024/03/17 06:42:00;;;;;;;11.50;2.50;;;;;;;4.90;100.00;100935.02;215100;1289;138842;-86
2024/03/17 06:47:01;;;;;;;11.00;3.00;;;;;;;4.99;100.00;100945.84;214251;1289;139454;-86
2024/03/17 06:52:02;;;;;;;11.00;2.40;;;;;;;5.09;100.00;100943.71;215156;1289;138805;-86
2024/03/17 06:57:02;;;;;;;15.60;2.50;;;;;;;5.19;100.00;100949.58;214435;1288;139245;-83
2024/03/17 07:02:03;;;;;;;13.10;2.40;;;;;;;5.28;100.00;100954.92;214977;1288;104539;-86
2024/03/17 07:07:03;;;;;;;12.50;3.20;;;;;;;5.29;100.00;100962.77;214298;1288;139931;-85
2024/03/17 07:12:04;;;;;;;11.30;2.10;;;;;;;5.19;100.00;100959.45;215510;1283;139466;-86
2024/03/17 07:17:05;;;;;;;10.00;2.20;;;;;;;5.11;100.00;100962.34;215151;1285;139427;-86
2024/03/17 07:22:05;;;;;;;11.70;2.90;;;;;;;5.05;100.00;100974.30;217143;1288;138863;-86
2024/03/17 07:27:10;;;;;;;10.80;2.50;;;;;;;5.06;100.00;100982.07;215357;1285;139892;-85
2024/03/17 07:32:10;;;;;;;9.10;2.80;;;;;;;5.07;100.00;100989.42;214992;1286;105991;-85
2024/03/17 07:37:11;;;;;;;8.10;2.20;;;;;;;5.05;100.00;100993.66;214265;1287;139259;-86
2024/03/17 07:42:13;;;;;;;8.40;2.40;;;;;;;5.09;100.00;101004.49;215210;1288;138657;-85
2024/03/17 07:47:13;;;;;;;11.70;3.00;;;;;;;5.09;100.00;101011.70;214525;1289;139244;-86
2024/03/17 07:52:14;;;;;;;9.80;3.20;;;;;;;5.13;100.00;101016.91;215044;1285;138923;-85
2024/03/17 07:57:14;;;;;;;8.00;2.70;;;;;;;5.19;100.00;101018.71;214703;1288;139506;-85
2024/03/17 08:02:15;;;;;;;9.80;2.80;;;;;;;5.25;100.00;101018.73;215191;1288;99787;-86
2024/03/17 08:07:15;;;;;;;9.50;2.70;;;;;;;5.40;100.00;101014.52;213652;1286;139322;-85
2024/03/17 08:12:15;;;;;;;8.60;2.80;;;;;;;5.55;100.00;101002.58;214153;1284;139858;-86
2024/03/17 08:17:16;;;;;;;9.40;3.50;;;;;;;5.71;100.00;101006.16;213654;1288;139665;-86
2024/03/17 08:22:17;;;;;;;11.20;3.00;;;;;;;5.88;100.00;101004.21;214797;1285;138693;-84
2024/03/17 08:27:17;;;;;;;10.20;3.60;;;;;;;6.02;100.00;101011.65;214959;1288;139942;-83
2024/03/17 08:32:19;;;;;;;13.00;3.70;;;;;;;6.07;100.00;101015.22;214336;1284;98966;-86
2024/03/17 08:37:19;;;;;;;12.10;4.00;;;;;;;6.09;100.00;101026.89;213553;1286;139293;-86
2024/03/17 08:42:20;;;;;;;10.50;3.70;;;;;;;6.15;100.00;101032.51;213983;1288;138716;-86
2024/03/17 08:47:20;;;;;;;11.90;3.40;;;;;;;6.18;100.00;101034.92;213760;1288;140026;-86
2024/03/17 08:52:21;;;;;;;10.30;3.30;;;;;;;6.14;100.00;101038.43;214186;1288;138796;-86
2024/03/17 08:57:21;;;;;;;10.20;4.10;;;;;;;6.08;100.00;101045.00;213647;1288;140543;-85
2024/03/17 09:02:22;;;;;;;9.60;2.70;;;;;;;5.99;99.61;101053.70;214131;1285;105726;-87
2024/03/17 09:07:22;;;;;;;7.00;2.30;;;;;;;6.00;100.00;101053.80;213611;1283;139124;-85
2024/03/17 09:12:23;;;;;;;7.50;2.60;;;;;;;6.05;99.18;101055.30;214143;1285;139479;-86
2024/03/17 09:17:24;;;;;;;8.00;3.10;;;;;;;6.21;98.85;101059.60;213605;1285;139205;-85
2024/03/17 09:22:24;;;;;;;9.00;3.40;;;;;;;6.39;98.49;101061.33;214096;1285;138495;-86
2024/03/17 09:27:25;;;;;;;6.70;2.30;;;;;;;6.58;96.90;101061.33;216098;1285;138489;-86
2024/03/17 09:32:26;;;;;;;2.80;1.20;;;;;;;6.79;94.16;101065.17;214068;1288;99189;-85
2024/03/17 09:37:27;;;;;;;6.00;1.60;;;;;;;6.93;93.30;101066.39;213637;1284;139394;-85
2024/03/17 09:42:27;;;;;;;4.70;1.40;;;;;;;7.06;92.09;101068.08;214197;1285;138129;-86
2024/03/17 09:47:29;;;;;;;3.60;1.30;;;;;;;7.23;91.86;101066.65;213564;1286;139284;-85
2024/03/17 09:52:29;;;;;;;4.90;1.50;;;;;;;7.41;91.26;101069.06;214477;1285;138304;-86
2024/03/17 09:57:30;;;;;;;4.60;1.20;;;;;;;7.51;90.17;101071.66;213426;1285;399390;-85
2024/03/17 10:02:30;;;;;;;3.40;1.50;;;;;;;7.50;88.40;101071.96;214175;1284;98870;-86
2024/03/17 10:07:50;;;;;;;5.80;1.50;;;;;;;7.44;88.07;101074.17;213510;1288;139565;-85
2024/03/17 10:12:51;;;;;;;3.20;1.30;;;;;;;7.48;88.46;101078.23;214462;1286;138922;-85
2024/03/17 10:17:54;;;;;;;4.10;1.10;;;;;;;7.47;88.62;101084.15;213417;1283;139363;-85
2024/03/17 10:23:05;;;;;;;4.70;1.30;;;;;;;7.45;88.47;101089.85;214157;1285;138334;-85
2024/03/17 10:28:12;;;;;;;3.40;1.20;;;;;;;7.36;88.03;101093.70;215286;1285;138562;-85
2024/03/17 10:33:27;;;;;;;5.30;1.50;;;;;;;7.32;88.36;101100.38;215270;1283;138774;-86
2024/03/17 10:38:29;;;;;;;4.80;1.60;;;;;;;7.29;89.74;101096.83;213768;1285;139340;-85
2024/03/17 10:43:30;;;;;;;4.60;1.60;;;;;;;7.36;89.93;101096.75;214142;1288;138198;-85
2024/03/17 10:48:33;;;;;;;4.70;2.60;;;;;;;7.37;88.44;101095.06;213613;1285;139042;-85
2024/03/17 10:53:34;;;;;;;3.90;1.70;;;;;;;7.23;88.52;101102.08;214176;1285;138709;-85
2024/03/17 10:58:48;;;;;;;8.80;3.20;;;;;;;7.29;89.66;101100.17;213704;1288;138455;-85
2024/03/17 11:03:51;;;;;;;10.60;3.80;;;;;;;7.32;88.13;101104.67;214169;1283;138487;-85
2024/03/17 11:08:52;;;;;;;7.30;2.70;;;;;;;7.34;88.19;101109.14;213923;1286;139121;-85
2024/03/17 11:14:16;;;;;;;9.90;3.80;;;;;;;7.28;87.53;101112.10;214355;1287;139826;-85
2024/03/17 11:19:17;;;;;;;10.90;5.20;;;;;;;7.19;87.09;101116.48;213621;1288;139305;-84
2024/03/17 11:24:20;;;;;;;12.40;5.40;;;;;;;7.06;87.70;101119.25;214166;1286;139031;-86
2024/03/17 11:29:32;;;;;;;13.00;5.20;;;;;;;7.08;89.98;101116.71;213354;1283;139991;-85
2024/03/17 11:34:39;;;;;;;12.90;5.00;;;;;;;7.15;89.02;101119.10;216383;1283;138490;-86
2024/03/17 11:39:57;;;;;;;13.30;5.50;;;;;;;7.15;90.19;101113.79;213686;1283;139154;-85
2024/03/17 11:45:09;;;;;;;12.80;5.20;;;;;;;7.24;89.49;101115.02;214414;1285;98885;-86
2024/03/17 11:50:12;;;;;;;10.80;4.70;;;;;;;7.26;88.61;101115.48;213707;1286;138902;-85
2024/03/17 11:55:18;;;;;;;12.20;4.10;;;;;;;7.19;87.55;101113.84;214208;1288;139214;-85
2024/03/17 12:00:20;;;;;;;11.30;4.80;;;;;;;7.12;86.62;101113.65;213695;1283;140142;-86
2024/03/17 12:05:21;;;;;;;23.60;13.80;;;;;;;7.07;87.41;101113.86;214498;1288;139092;-86
2024/03/17 12:10:22;;;;;;;13.10;7.10;;;;;;;7.06;87.61;101114.88;213741;1286;139735;-86
2024/03/17 12:15:22;;;;;;;7.10;2.40;;;;;;;7.02;86.95;101120.04;214184;1285;138903;-84
2024/03/17 12:20:23;;;;;;;4.10;1.80;;;;;;;6.79;87.51;101129.18;213829;1287;138991;-85
2024/03/17 12:25:26;;;;;;;3.00;1.00;;;;;;;6.54;89.63;101142.90;214020;1287;138201;-85
2024/03/17 12:30:27;;;;;;;2.10;1.00;;;;;;;6.41;90.69;101144.91;213821;1283;139948;-85
2024/03/17 12:35:28;;;;;;;4.00;1.40;;;;;;;6.36;91.88;101137.45;216860;1283;138489;-84
2024/03/17 12:40:29;;;;;;;3.80;2.00;;;;;;;6.44;92.28;101137.69;213711;1283;139001;-85
2024/03/17 12:45:30;;;;;;;3.10;1.80;;;;;;;6.45;92.23;101141.61;214125;1285;138332;-85
2024/03/17 12:50:31;;;;;;;2.80;1.20;;;;;;;6.44;90.73;101138.53;213857;1284;139396;-85
2024/03/17 13:00:58;;;;;;;7.20;2.40;;;;;;;6.46;89.76;101132.30;213808;1287;138780;-85
2024/03/17 13:05:59;;;;;;;4.30;2.30;;;;;;;6.43;89.31;101136.63;214273;1285;138696;-84
2024/03/17 13:11:00;;;;;;;1.80;0.90;;;;;;;6.37;89.16;101143.65;213936;1288;139324;-84
2024/03/17 13:16:01;;;;;;;4.00;0.90;;;;;;;6.18;89.32;101147.05;214189;1287;138809;-85
2024/03/17 13:21:01;;;;;;;2.40;0.80;;;;;;;6.12;89.53;101149.14;214012;1285;139444;-86
2024/03/17 13:26:01;;;;;;;4.10;1.30;;;;;;;6.10;89.73;101146.80;214480;1285;138000;-85
2024/03/17 13:31:04;;;;;;;2.80;1.10;;;;;;;6.16;89.98;101146.58;213846;1284;139372;-84
2024/03/17 13:36:05;;;;;;;4.00;1.00;;;;;;;6.18;88.78;101144.98;215243;1287;138890;-84
2024/03/17 13:41:08;;;;;;;3.10;1.00;;;;;;;6.23;87.58;101145.35;214583;1286;139015;-86
2024/03/17 13:46:11;;;;;;;2.20;1.00;;;;;;;6.20;86.62;101152.27;214705;1283;140350;-85
2024/03/17 13:51:12;;;;;;;5.50;1.40;;;;;;;6.19;87.45;101155.45;214318;1288;139189;-83
2024/03/17 13:56:13;;;;;;;4.10;1.30;;;;;;;6.21;87.30;101161.38;214488;1283;98737;-83
2024/03/17 14:01:13;;;;;;;3.00;1.30;;;;;;;6.20;86.82;101160.48;213700;1288;138741;-82
2024/03/17 14:06:14;;;;;;;3.10;1.00;;;;;;;6.20;87.14;101157.11;214345;1288;138446;-84
2024/03/17 14:11:14;;;;;;;2.70;0.80;;;;;;;6.12;86.16;101163.41;213771;1283;138972;-85
2024/03/17 14:16:15;;;;;;;2.10;0.90;;;;;;;6.11;86.83;101169.63;214360;1287;138443;-86
2024/03/17 14:21:16;;;;;;;6.60;1.50;;;;;;;6.16;87.38;101164.39;213528;1287;139095;-85
2024/03/17 14:26:17;;;;;;;2.80;0.90;;;;;;;6.19;86.45;101168.02;214362;1283;98902;-85
2024/03/17 14:31:17;;;;;;;2.80;1.00;;;;;;;6.15;86.37;101166.42;213875;1284;138710;-86
2024/03/17 14:36:19;;;;;;;4.40;1.20;;;;;;;6.12;85.27;101167.11;213991;1284;138575;-83
2024/03/17 14:41:20;;;;;;;3.20;1.20;;;;;;;6.10;85.48;101158.95;216197;1284;138343;-86
2024/03/17 14:46:21;;;;;;;3.70;1.00;;;;;;;6.11;84.75;101163.70;214007;1285;139469;-85
2024/03/17 14:51:22;;;;;;;1.90;1.00;;;;;;;6.07;83.85;101161.95;214173;1285;138355;-85
2024/03/17 14:56:22;;;;;;;1.90;0.80;;;;;;;6.03;83.83;101160.50;213698;1285;139400;-86
2024/03/17 15:01:23;;;;;;;4.10;1.70;;;;;;;5.95;83.46;101163.17;214300;1285;138798;-85
2024/03/17 15:06:25;;;;;;;9.00;4.00;;;;;;;5.89;84.56;101170.05;214132;1285;139140;-84
2024/03/17 15:11:25;;;;;;;2.30;1.30;;;;;;;5.88;84.74;101172.49;215139;1282;138368;-85
2024/03/17 15:16:25;;;;;;;4.90;1.70;;;;;;;5.89;85.17;101175.29;214683;1285;139824;-85
2024/03/17 15:21:26;;;;;;;4.00;2.00;;;;;;;5.83;84.42;101178.39;215241;1285;138710;-87
2024/03/17 15:26:27;;;;;;;6.50;2.50;;;;;;;5.81;85.04;101181.25;214720;1288;139291;-84
2024/03/17 15:31:27;;;;;;;7.20;2.60;;;;;;;5.72;84.53;101181.38;214322;1285;138298;-84
2024/03/17 15:36:29;;;;;;;5.50;1.80;;;;;;;5.64;85.07;101176.43;213841;1283;139217;-84
2024/03/17 15:41:30;;;;;;;5.30;2.00;;;;;;;5.57;85.17;101180.98;215717;1285;137253;-84
2024/03/17 15:46:33;;;;;;;5.00;1.90;;;;;;;5.53;85.11;101180.64;213933;1284;139908;-85
2024/03/17 15:51:34;;;;;;;18.70;7.40;;;;;;;5.46;85.68;101181.14;214828;1285;138299;-85
2024/03/17 15:56:34;;;;;;;5.00;2.60;;;;;;;5.44;85.79;101184.05;214399;1288;139856;-85
2024/03/17 16:01:35;;;;;;;8.20;3.10;;;;;;;5.39;86.68;101184.40;214974;1287;138738;-85
2024/03/17 16:06:36;;;;;;;6.60;3.00;;;;;;;5.34;86.25;101183.48;213874;1285;144207;-85
2024/03/17 16:11:38;;;;;;;9.00;3.30;;;;;;;5.31;87.11;101183.42;214383;1284;138769;-85
2024/03/17 16:16:40;;;;;;;5.70;2.40;;;;;;;5.27;87.30;101193.02;213950;1284;139153;-85
2024/03/17 16:21:41;;;;;;;10.20;4.30;;;;;;;5.22;87.87;101196.05;214255;1285;138325;-85
2024/03/17 16:26:42;;;;;;;14.80;4.90;;;;;;;5.24;88.09;101197.29;214002;1288;139486;-85
2024/03/17 16:31:42;;;;;;;7.30;2.20;;;;;;;5.13;87.48;101201.64;214330;1288;138479;-85
2024/03/17 16:36:45;;;;;;;9.70;3.00;;;;;;;5.02;87.26;101200.89;213722;1285;140549;-85
2024/03/17 16:41:46;;;;;;;6.30;2.40;;;;;;;4.92;87.88;101207.55;216026;1288;137263;-85
2024/03/17 16:46:46;;;;;;;6.90;2.20;;;;;;;4.82;88.18;101205.05;213900;1286;139172;-84
2024/03/17 16:51:52;;;;;;;11.40;3.80;;;;;;;4.75;88.44;101211.95;214297;1285;138448;-85
2024/03/17 16:56:52;;;;;;;12.90;4.40;;;;;;;4.60;88.13;101212.83;213795;1282;139702;-84
2024/03/17 17:01:53;;;;;;;18.60;4.30;;;;;;;4.50;88.88;101221.69;214161;1288;138290;-85
2024/03/17 17:06:56;;;;;;;15.30;4.70;;;;;;;4.43;88.93;101219.48;213722;1285;139993;-85
2024/03/17 17:11:56;;;;;;;12.10;3.80;;;;;;;4.36;89.29;101218.45;214183;1287;138517;-85
2024/03/17 17:16:57;;;;;;;18.50;5.60;;;;;;;4.33;90.32;101222.52;213795;1285;139607;-85
2024/03/17 17:21:58;;;;;;;19.60;5.10;;;;;;;4.30;90.81;101225.80;214426;1286;138647;-83
2024/03/17 17:26:59;;;;;;;10.30;3.40;;;;;;;4.27;91.03;101226.88;214045;1285;139452;-83
2024/03/17 17:32:00;;;;;;;31.10;11.40;;;;;;;4.18;90.99;101226.50;214232;1288;138774;-83
2024/03/17 17:37:02;;;;;;;14.30;5.90;;;;;;;4.12;91.18;101223.94;213983;1285;139524;-83
2024/03/17 17:42:04;;;;;;;12.50;6.50;;;;;;;4.08;91.44;101227.27;214730;1285;138550;-83
2024/03/17 17:47:05;;;;;;;9.10;3.10;;;;;;;4.06;91.64;101227.14;213987;1288;139489;-84
2024/03/17 17:52:05;;;;;;;6.00;2.20;;;;;;;4.00;91.82;101227.16;214528;1285;138395;-83
2024/03/17 17:57:06;;;;;;;10.10;4.30;;;;;;;3.95;92.34;101233.92;215529;1287;139144;-83
2024/03/17 18:02:06;;;;;;;8.90;3.70;;;;;;;3.93;92.56;101231.48;216477;1288;97954;-82
2024/03/17 18:07:09;;;;;;;14.50;5.90;;;;;;;3.89;92.09;101230.80;214995;1288;140403;-83
2024/03/17 18:12:09;;;;;;;12.60;3.90;;;;;;;3.84;91.96;101232.56;215777;1285;138711;-83
2024/03/17 18:17:11;;;;;;;17.20;6.40;;;;;;;3.80;92.65;101229.60;215212;1288;140429;-83
2024/03/17 18:22:12;;;;;;;13.60;4.50;;;;;;;3.78;92.53;101230.02;215870;1285;138531;-83
2024/03/17 18:27:13;;;;;;;12.00;3.50;;;;;;;3.74;92.20;101232.06;215316;1283;139135;-83
2024/03/17 18:32:13;;;;;;;24.10;10.00;;;;;;;3.69;92.58;101228.64;216030;1285;98019;-82
2024/03/17 18:37:14;;;;;;;7.90;2.90;;;;;;;3.61;91.90;101229.84;214928;1283;139271;-82
2024/03/17 18:42:15;;;;;;;10.50;3.20;;;;;;;3.54;91.82;101234.42;216014;1287;138477;-83
2024/03/17 18:47:15;;;;;;;18.40;6.60;;;;;;;3.51;92.06;101237.44;215453;1284;139552;-82
2024/03/17 18:52:16;;;;;;;8.80;2.90;;;;;;;3.50;92.46;101241.80;215556;1285;138788;-82
2024/03/17 18:57:16;;;;;;;14.10;4.50;;;;;;;3.49;92.74;101245.45;214875;1282;139216;-82
2024/03/17 19:02:17;;;;;;;4.80;2.20;;;;;;;3.44;93.09;101255.63;216012;1288;110322;-83
2024/03/17 19:07:22;;;;;;;5.20;1.90;;;;;;;3.35;93.23;101257.38;215406;1286;139951;-82
2024/03/17 19:12:23;;;;;;;4.90;1.70;;;;;;;3.24;93.46;101256.54;216119;1284;138424;-83
2024/03/17 19:17:24;;;;;;;4.20;1.70;;;;;;;3.20;94.39;101257.46;215950;1285;139371;-83
2024/03/17 19:22:28;;;;;;;4.90;1.90;;;;;;;3.18;94.43;101261.09;216273;1285;138477;-82
2024/03/17 19:27:29;;;;;;;5.30;1.70;;;;;;;3.14;94.80;101266.52;215803;1285;139542;-82
2024/03/17 19:32:30;;;;;;;6.10;2.00;;;;;;;3.07;94.97;101260.00;216262;1288;98474;-82
2024/03/17 19:37:31;;;;;;;5.50;1.70;;;;;;;3.03;95.04;101262.11;215339;1285;139202;-83
2024/03/17 19:42:32;;;;;;;4.60;1.90;;;;;;;3.00;95.77;101256.58;215835;1285;137210;-82
2024/03/17 19:47:32;;;;;;;6.00;3.00;;;;;;;2.98;95.91;101255.25;215883;1285;139763;-85
2024/03/17 19:52:33;;;;;;;7.70;3.10;;;;;;;2.93;95.62;101251.89;216278;1285;138478;-83
2024/03/17 19:57:33;;;;;;;8.70;3.00;;;;;;;2.91;95.67;101254.55;215247;1285;139354;-83
2024/03/17 20:02:34;;;;;;;8.30;2.60;;;;;;;2.90;95.54;101255.11;215919;1285;97862;-83
2024/03/17 20:07:34;;;;;;;7.70;2.50;;;;;;;2.86;94.91;101251.28;215112;1285;138967;-83
2024/03/17 20:12:34;;;;;;;6.90;2.60;;;;;;;2.85;95.47;101249.69;215850;1285;138669;-82
2024/03/17 20:17:37;;;;;;;5.20;2.30;;;;;;;2.83;95.48;101249.77;214591;1285;140414;-83
2024/03/17 20:22:38;;;;;;;5.90;1.90;;;;;;;2.81;95.32;101256.34;215321;1288;137475;-83
2024/03/17 20:27:40;;;;;;;5.90;2.20;;;;;;;2.78;95.31;101251.42;214368;1285;139335;-82
2024/03/17 20:32:40;;;;;;;4.50;1.80;;;;;;;2.75;94.92;101253.55;215249;1285;97976;-82
2024/03/17 20:37:42;;;;;;;7.00;1.80;;;;;;;2.68;94.81;101254.67;214671;1286;139349;-82
2024/03/17 20:42:43;;;;;;;5.50;1.80;;;;;;;2.62;94.74;101253.23;214349;1288;138701;-83
2024/03/17 20:47:43;;;;;;;3.00;1.30;;;;;;;2.53;94.51;101259.41;214169;1283;140228;-83
2024/03/17 20:52:44;;;;;;;4.20;1.60;;;;;;;2.40;93.57;101255.33;214094;1286;138430;-83
2024/03/17 20:57:46;;;;;;;1.70;0.80;;;;;;;2.33;93.27;101257.42;214710;1285;139166;-81
2024/03/17 21:02:48;;;;;;;3.80;1.10;;;;;;;2.26;93.16;101258.20;214775;1283;98045;-81
2024/03/17 21:07:51;;;;;;;4.10;1.10;;;;;;;2.25;93.26;101258.13;214375;1288;138850;-82
2024/03/17 21:12:52;;;;;;;4.70;1.30;;;;;;;2.22;93.50;101256.39;214517;1286;138151;-83
2024/03/17 21:17:52;;;;;;;4.80;1.70;;;;;;;2.21;93.82;101253.59;213831;1288;138765;-82
2024/03/17 21:22:57;;;;;;;3.00;1.50;;;;;;;2.20;94.37;101251.21;214502;1288;138438;-82
2024/03/17 21:27:58;;;;;;;3.30;1.30;;;;;;;2.20;94.17;101251.10;214018;1287;139347;-83
2024/03/17 21:33:00;;;;;;;4.30;1.50;;;;;;;2.17;94.27;101251.33;214685;1288;99303;-83
2024/03/17 21:38:01;;;;;;;4.80;1.60;;;;;;;2.15;94.65;101255.29;214057;1283;138822;-83
2024/03/17 21:43:02;;;;;;;6.00;1.70;;;;;;;2.14;94.75;101252.75;214496;1287;138298;-83
2024/03/17 21:48:03;;;;;;;6.00;2.00;;;;;;;2.13;94.96;101248.91;214003;1288;139055;-82
2024/03/17 21:53:03;;;;;;;11.20;3.00;;;;;;;2.10;95.21;101240.81;214264;1285;305451;-82
2024/03/17 21:58:04;;;;;;;12.10;3.60;;;;;;;2.07;95.36;101235.67;213869;1284;139274;-83
2024/03/17 22:03:04;;;;;;;8.70;2.90;;;;;;;2.01;95.48;101233.39;214421;1285;98645;-82
2024/03/17 22:08:05;;;;;;;10.60;3.10;;;;;;;1.95;95.58;101228.17;213853;1288;139098;-82
2024/03/17 22:13:06;;;;;;;10.20;3.50;;;;;;;1.88;95.96;101225.23;214244;1288;138340;-83
2024/03/17 22:18:07;;;;;;;10.60;3.60;;;;;;;1.80;96.43;101221.64;213911;1288;139776;-83
2024/03/17 22:23:07;;;;;;;6.60;2.70;;;;;;;1.76;96.89;101223.29;214310;1288;140334;-83
2024/03/17 22:28:08;;;;;;;4.50;2.30;;;;;;;1.72;96.86;101222.38;214171;1288;139882;-83
2024/03/17 22:33:08;;;;;;;6.90;2.40;;;;;;;1.68;97.46;101224.57;214410;1285;138480;-83
2024/03/17 22:38:09;;;;;;;7.90;2.70;;;;;;;1.65;97.90;101218.61;214460;1283;139540;-83
2024/03/17 22:43:09;;;;;;;5.70;2.30;;;;;;;1.63;98.78;101214.58;214753;1289;138941;-83
2024/03/17 22:48:10;;;;;;;6.60;2.40;;;;;;;1.62;99.06;101211.27;214700;1286;139027;-82
2024/03/17 22:53:12;;;;;;;6.00;2.40;;;;;;;1.59;98.99;101211.44;215358;1286;138525;-82
2024/03/17 22:58:13;;;;;;;6.40;2.20;;;;;;;1.58;99.32;101213.09;214583;1288;140539;-83
2024/03/17 23:03:13;;;;;;;4.40;1.80;;;;;;;1.56;98.98;101205.20;214872;1288;138565;-81
2024/03/17 23:08:16;;;;;;;9.20;2.70;;;;;;;1.53;99.13;101205.46;214028;1286;139212;-82